Terminal Aerodrome Forecast
Issued by NWS

Home | Current Version | Previous Version | Text Only | Print | Product List | Glossary On
Versions: 1 2 3 4 5 6 7 8 9 10 11 12 13 14 15 16
000
FTAK31 PAJN 200500
TAFAGY
TAF
PAGY 200525Z 2006/2106 VRB04KT P6SM VCSH SCT030 BKN050
     FM201800 22007KT P6SM BKN050
     FM210000 VRB04KT P6SM BKN060
      AMD LTD TO CLD VIS AND WIND=

USA.gov is the U.S. government's official web portal to all federal, state and local government web resources and services.